sensor_id;sensor_type;location;lat;lon;timestamp;pressure;altitude;pressure_sealevel;temperature;humidity
40920;BME280;26652;50.280;19.026;2023-12-20T00:01:12;149876.41;;;8.34;64.47
40920;BME280;26652;50.280;19.026;2023-12-20T00:03:18;149848.13;;;8.23;63.97
40920;BME280;26652;50.280;19.026;2023-12-20T00:05:18;149807.50;;;8.06;64.97
40920;BME280;26652;50.280;19.026;2023-12-20T00:07:19;149844.41;;;8.21;65.29
40920;BME280;26652;50.280;19.026;2023-12-20T00:09:19;149838.28;;;8.18;64.19
40920;BME280;26652;50.280;19.026;2023-12-20T00:11:20;149819.81;;;8.11;63.82
40920;BME280;26652;50.280;19.026;2023-12-20T00:13:21;149796.44;;;8.01;66.97
40920;BME280;26652;50.280;19.026;2023-12-20T00:15:21;149806.28;;;8.05;64.96
40920;BME280;26652;50.280;19.026;2023-12-20T00:17:22;149797.66;;;8.02;65.76
40920;BME280;26652;50.280;19.026;2023-12-20T00:19:23;149828.44;;;8.14;65.89
40920;BME280;26652;50.280;19.026;2023-12-20T00:21:24;149800.13;;;8.03;63.70
40920;BME280;26652;50.280;19.026;2023-12-20T00:23:25;149776.75;;;7.93;64.89
40920;BME280;26652;50.280;19.026;2023-12-20T00:25:25;149797.66;;;8.02;65.99
40920;BME280;26652;50.280;19.026;2023-12-20T00:27:26;149786.59;;;7.97;65.24
40920;BME280;26652;50.280;19.026;2023-12-20T00:29:27;149790.28;;;7.99;65.30
40920;BME280;26652;50.280;19.026;2023-12-20T00:31:27;149800.13;;;8.03;63.73
40920;BME280;26652;50.280;19.026;2023-12-20T00:33:28;149812.44;;;8.08;63.67
40920;BME280;26652;50.280;19.026;2023-12-20T00:35:29;149793.97;;;8.00;63.00
40920;BME280;26652;50.280;19.026;2023-12-20T00:37:29;149765.66;;;7.88;61.92
40920;BME280;26652;50.280;19.026;2023-12-20T00:39:30;149780.44;;;7.95;62.14
40920;BME280;26652;50.280;19.026;2023-12-20T00:41:30;149793.97;;;8.00;62.22
40920;BME280;26652;50.280;19.026;2023-12-20T00:43:31;149817.34;;;8.10;60.58
40920;BME280;26652;50.280;19.026;2023-12-20T00:45:32;149785.34;;;7.97;61.50
40920;BME280;26652;50.280;19.026;2023-12-20T00:47:32;149779.19;;;7.94;60.73
40920;BME280;26652;50.280;19.026;2023-12-20T00:49:33;149770.59;;;7.91;59.55
40920;BME280;26652;50.280;19.026;2023-12-20T00:51:34;149792.75;;;8.00;60.13
40920;BME280;26652;50.280;19.026;2023-12-20T00:53:34;149786.59;;;7.97;59.65
40920;BME280;26652;50.280;19.026;2023-12-20T00:55:35;149785.34;;;7.97;59.47
40920;BME280;26652;50.280;19.026;2023-12-20T00:57:35;149823.50;;;8.12;58.76
40920;BME280;26652;50.280;19.026;2023-12-20T00:59:36;149807.50;;;8.06;59.01
40920;BME280;26652;50.280;19.026;2023-12-20T01:01:37;149825.97;;;8.13;57.40
40920;BME280;26652;50.280;19.026;2023-12-20T01:03:37;149818.59;;;8.10;57.20
40920;BME280;26652;50.280;19.026;2023-12-20T01:05:38;149805.03;;;8.05;57.35
40920;BME280;26652;50.280;19.026;2023-12-20T01:07:39;149818.59;;;8.10;57.53
40920;BME280;26652;50.280;19.026;2023-12-20T01:09:39;149845.66;;;8.22;57.15
40920;BME280;26652;50.280;19.026;2023-12-20T01:11:40;149849.34;;;8.23;55.89
40920;BME280;26652;50.280;19.026;2023-12-20T01:13:41;149846.88;;;8.22;56.82
40920;BME280;26652;50.280;19.026;2023-12-20T01:15:41;149844.41;;;8.21;55.01
40920;BME280;26652;50.280;19.026;2023-12-20T01:17:42;149801.34;;;8.03;56.03
40920;BME280;26652;50.280;19.026;2023-12-20T01:19:43;149813.66;;;8.08;55.67
40920;BME280;26652;50.280;19.026;2023-12-20T01:21:43;149856.72;;;8.26;55.35
40920;BME280;26652;50.280;19.026;2023-12-20T01:23:44;149846.88;;;8.22;54.83
40920;BME280;26652;50.280;19.026;2023-12-20T01:25:44;149855.50;;;8.26;54.24
40920;BME280;26652;50.280;19.026;2023-12-20T01:27:45;149856.72;;;8.26;53.58
40920;BME280;26652;50.280;19.026;2023-12-20T01:29:46;149833.34;;;8.16;55.17
40920;BME280;26652;50.280;19.026;2023-12-20T01:31:46;149860.44;;;8.28;54.85
40920;BME280;26652;50.280;19.026;2023-12-20T01:33:47;149875.19;;;8.34;55.21
40920;BME280;26652;50.280;19.026;2023-12-20T01:35:48;149876.41;;;8.34;54.22
40920;BME280;26652;50.280;19.026;2023-12-20T01:37:48;149851.81;;;8.24;54.46
40920;BME280;26652;50.280;19.026;2023-12-20T01:39:49;149849.34;;;8.23;55.15
40920;BME280;26652;50.280;19.026;2023-12-20T01:41:49;149835.81;;;8.17;54.64
40920;BME280;26652;50.280;19.026;2023-12-20T01:43:50;149880.13;;;8.36;54.43
40920;BME280;26652;50.280;19.026;2023-12-20T01:45:51;149893.66;;;8.41;54.54
40920;BME280;26652;50.280;19.026;2023-12-20T01:47:53;149894.88;;;8.42;54.16
40920;BME280;26652;50.280;19.026;2023-12-20T01:49:53;149861.66;;;8.28;54.65
40920;BME280;26652;50.280;19.026;2023-12-20T01:51:55;149866.56;;;8.30;53.64
40920;BME280;26652;50.280;19.026;2023-12-20T01:53:57;149882.56;;;8.37;54.81
40920;BME280;26652;50.280;19.026;2023-12-20T01:55:59;149854.25;;;8.25;54.15
40920;BME280;26652;50.280;19.026;2023-12-20T01:58:00;149885.03;;;8.38;54.31
40920;BME280;26652;50.280;19.026;2023-12-20T02:00:01;149870.28;;;8.32;53.45
40920;BME280;26652;50.280;19.026;2023-12-20T02:02:03;149893.66;;;8.41;53.86
40920;BME280;26652;50.280;19.026;2023-12-20T02:04:04;149902.28;;;8.45;54.41
40920;BME280;26652;50.280;19.026;2023-12-20T02:06:05;149917.03;;;8.51;53.45
40920;BME280;26652;50.280;19.026;2023-12-20T02:08:07;149940.44;;;8.61;53.65
40920;BME280;26652;50.280;19.026;2023-12-20T02:10:07;149941.66;;;8.61;52.68
40920;BME280;26652;50.280;19.026;2023-12-20T02:12:09;149889.97;;;8.40;53.60
40920;BME280;26652;50.280;19.026;2023-12-20T02:14:09;149877.66;;;8.35;54.07
40920;BME280;26652;50.280;19.026;2023-12-20T02:16:10;149915.81;;;8.50;52.94
40920;BME280;26652;50.280;19.026;2023-12-20T02:18:11;149877.66;;;8.35;53.91
40920;BME280;26652;50.280;19.026;2023-12-20T02:20:16;149861.66;;;8.28;54.96
40920;BME280;26652;50.280;19.026;2023-12-20T02:22:16;149827.19;;;8.14;53.67
40920;BME280;26652;50.280;19.026;2023-12-20T02:24:17;149860.44;;;8.28;54.09
40920;BME280;26652;50.280;19.026;2023-12-20T02:26:17;149829.66;;;8.15;53.31
40920;BME280;26652;50.280;19.026;2023-12-20T02:28:19;149809.97;;;8.07;53.94
40920;BME280;26652;50.280;19.026;2023-12-20T02:30:19;149823.50;;;8.12;54.70
40920;BME280;26652;50.280;19.026;2023-12-20T02:32:21;149805.03;;;8.05;54.29
40920;BME280;26652;50.280;19.026;2023-12-20T02:34:22;149805.03;;;8.05;54.65
40920;BME280;26652;50.280;19.026;2023-12-20T02:36:23;149780.44;;;7.95;54.44
40920;BME280;26652;50.280;19.026;2023-12-20T02:38:23;149791.50;;;7.99;55.73
40920;BME280;26652;50.280;19.026;2023-12-20T02:40:24;149759.53;;;7.86;54.83
40920;BME280;26652;50.280;19.026;2023-12-20T02:42:25;149791.50;;;7.99;54.03
40920;BME280;26652;50.280;19.026;2023-12-20T02:44:25;149809.97;;;8.07;55.06
40920;BME280;26652;50.280;19.026;2023-12-20T02:46:26;149792.75;;;8.00;54.19
40920;BME280;26652;50.280;19.026;2023-12-20T02:48:27;149805.03;;;8.05;55.08
40920;BME280;26652;50.280;19.026;2023-12-20T02:50:27;149743.53;;;7.79;54.60
40920;BME280;26652;50.280;19.026;2023-12-20T02:52:28;149763.22;;;7.87;55.36
40920;BME280;26652;50.280;19.026;2023-12-20T02:54:29;149758.28;;;7.85;54.84
40920;BME280;26652;50.280;19.026;2023-12-20T02:56:30;149764.44;;;7.88;54.89
40920;BME280;26652;50.280;19.026;2023-12-20T02:58:30;149734.91;;;7.76;54.85
40920;BME280;26652;50.280;19.026;2023-12-20T03:00:31;149741.06;;;7.78;56.11
40920;BME280;26652;50.280;19.026;2023-12-20T03:02:32;149755.81;;;7.84;57.01
40920;BME280;26652;50.280;19.026;2023-12-20T03:04:33;149721.38;;;7.70;58.94
40920;BME280;26652;50.280;19.026;2023-12-20T03:06:34;149721.38;;;7.70;60.59
40920;BME280;26652;50.280;19.026;2023-12-20T03:08:34;149688.16;;;7.57;61.63
40920;BME280;26652;50.280;19.026;2023-12-20T03:10:35;149659.88;;;7.45;64.13
40920;BME280;26652;50.280;19.026;2023-12-20T03:12:36;149629.13;;;7.32;65.16
40920;BME280;26652;50.280;19.026;2023-12-20T03:14:36;149583.66;;;7.13;64.48
40920;BME280;26652;50.280;19.026;2023-12-20T03:16:37;149591.06;;;7.16;66.11
40920;BME280;26652;50.280;19.026;2023-12-20T03:18:37;149597.19;;;7.19;67.37
40920;BME280;26652;50.280;19.026;2023-12-20T03:20:38;149599.66;;;7.20;67.20
40920;BME280;26652;50.280;19.026;2023-12-20T03:22:41;149591.06;;;7.16;67.29
40920;BME280;26652;50.280;19.026;2023-12-20T03:24:42;149615.66;;;7.27;68.04
40920;BME280;26652;50.280;19.026;2023-12-20T03:26:42;149620.53;;;7.29;69.28
40920;BME280;26652;50.280;19.026;2023-12-20T03:28:43;149631.59;;;7.33;70.52
40920;BME280;26652;50.280;19.026;2023-12-20T03:30:43;149616.88;;;7.27;71.79
40920;BME280;26652;50.280;19.026;2023-12-20T03:32:45;149636.50;;;7.35;70.78
40920;BME280;26652;50.280;19.026;2023-12-20T03:34:45;149560.31;;;7.04;71.56
40920;BME280;26652;50.280;19.026;2023-12-20T03:36:46;149598.44;;;7.19;73.29
40920;BME280;26652;50.280;19.026;2023-12-20T03:38:48;149565.22;;;7.06;72.23
40920;BME280;26652;50.280;19.026;2023-12-20T03:40:48;149576.28;;;7.10;73.82
40920;BME280;26652;50.280;19.026;2023-12-20T03:42:49;149512.34;;;6.84;74.11
40920;BME280;26652;50.280;19.026;2023-12-20T03:44:50;149474.25;;;6.68;74.75
40920;BME280;26652;50.280;19.026;2023-12-20T03:46:50;149479.16;;;6.70;74.29
40920;BME280;26652;50.280;19.026;2023-12-20T03:48:51;149469.34;;;6.66;75.82
40920;BME280;26652;50.280;19.026;2023-12-20T03:50:51;149423.84;;;6.47;76.40
40920;BME280;26652;50.280;19.026;2023-12-20T03:52:52;149438.59;;;6.53;76.29
40920;BME280;26652;50.280;19.026;2023-12-20T03:54:53;149407.88;;;6.41;77.56
40920;BME280;26652;50.280;19.026;2023-12-20T03:56:54;149414.03;;;6.43;77.81
40920;BME280;26652;50.280;19.026;2023-12-20T03:58:54;149453.34;;;6.60;79.79
40920;BME280;26652;50.280;19.026;2023-12-20T04:00:55;149442.28;;;6.55;79.86
40920;BME280;26652;50.280;19.026;2023-12-20T04:02:56;149416.47;;;6.44;79.04
40920;BME280;26652;50.280;19.026;2023-12-20T04:04:56;149394.34;;;6.35;80.76
40920;BME280;26652;50.280;19.026;2023-12-20T04:06:57;149379.63;;;6.29;81.69
40920;BME280;26652;50.280;19.026;2023-12-20T04:08:58;149377.16;;;6.28;82.00
40920;BME280;26652;50.280;19.026;2023-12-20T04:10:58;149360.00;;;6.21;83.25
40920;BME280;26652;50.280;19.026;2023-12-20T04:12:59;149337.88;;;6.12;84.21
40920;BME280;26652;50.280;19.026;2023-12-20T04:15:00;149309.63;;;6.00;83.67
40920;BME280;26652;50.280;19.026;2023-12-20T04:17:01;149315.75;;;6.03;84.48
40920;BME280;26652;50.280;19.026;2023-12-20T04:19:01;149315.75;;;6.03;86.16
40920;BME280;26652;50.280;19.026;2023-12-20T04:21:03;149341.56;;;6.13;86.16
40920;BME280;26652;50.280;19.026;2023-12-20T04:23:03;149347.72;;;6.16;86.71
40920;BME280;26652;50.280;19.026;2023-12-20T04:25:04;149309.63;;;6.00;87.33
40920;BME280;26652;50.280;19.026;2023-12-20T04:27:05;149310.84;;;6.01;88.99
40920;BME280;26652;50.280;19.026;2023-12-20T04:29:06;149275.19;;;5.86;89.63
40920;BME280;26652;50.280;19.026;2023-12-20T04:31:06;149280.09;;;5.88;90.71
40920;BME280;26652;50.280;19.026;2023-12-20T04:33:07;149251.84;;;5.76;90.45
40920;BME280;26652;50.280;19.026;2023-12-20T04:35:07;149266.56;;;5.82;90.81
40920;BME280;26652;50.280;19.026;2023-12-20T04:37:09;149259.19;;;5.79;91.63
40920;BME280;26652;50.280;19.026;2023-12-20T04:39:11;149218.66;;;5.63;93.28
40920;BME280;26652;50.280;19.026;2023-12-20T04:41:12;149210.06;;;5.59;94.07
40920;BME280;26652;50.280;19.026;2023-12-20T04:43:16;149246.91;;;5.74;94.71
40920;BME280;26652;50.280;19.026;2023-12-20T04:45:16;149173.22;;;5.44;96.21
40920;BME280;26652;50.280;19.026;2023-12-20T04:47:17;149207.63;;;5.58;97.20
40920;BME280;26652;50.280;19.026;2023-12-20T04:49:18;149136.38;;;5.29;98.86
40920;BME280;26652;50.280;19.026;2023-12-20T04:51:18;149172.00;;;5.43;100.00
40920;BME280;26652;50.280;19.026;2023-12-20T04:53:19;149149.91;;;5.34;100.00
40920;BME280;26652;50.280;19.026;2023-12-20T04:55:20;149168.31;;;5.42;100.00
40920;BME280;26652;50.280;19.026;2023-12-20T04:57:21;149170.78;;;5.43;100.00
40920;BME280;26652;50.280;19.026;2023-12-20T04:59:22;149156.03;;;5.37;100.00
40920;BME280;26652;50.280;19.026;2023-12-20T05:01:23;149168.31;;;5.42;100.00
40920;BME280;26652;50.280;19.026;2023-12-20T05:03:23;149160.94;;;5.39;100.00
40920;BME280;26652;50.280;19.026;2023-12-20T05:05:24;149152.34;;;5.35;100.00
40920;BME280;26652;50.280;19.026;2023-12-20T05:07:25;149147.44;;;5.33;100.00
40920;BME280;26652;50.280;19.026;2023-12-20T05:09:25;149143.75;;;5.32;100.00
40920;BME280;26652;50.280;19.026;2023-12-20T05:11:26;149170.78;;;5.43;100.00
40920;BME280;26652;50.280;19.026;2023-12-20T05:13:27;149187.97;;;5.50;100.00
40920;BME280;26652;50.280;19.026;2023-12-20T05:15:27;149195.34;;;5.53;100.00
40920;BME280;26652;50.280;19.026;2023-12-20T05:17:28;149190.41;;;5.51;100.00
40920;BME280;26652;50.280;19.026;2023-12-20T05:19:28;149178.13;;;5.46;100.00
40920;BME280;26652;50.280;19.026;2023-12-20T05:21:29;149172.00;;;5.43;100.00
40920;BME280;26652;50.280;19.026;2023-12-20T05:23:31;149173.22;;;5.44;100.00
40920;BME280;26652;50.280;19.026;2023-12-20T05:25:32;149173.22;;;5.44;100.00
40920;BME280;26652;50.280;19.026;2023-12-20T05:27:32;149163.41;;;5.40;100.00
40920;BME280;26652;50.280;19.026;2023-12-20T05:29:33;149217.44;;;5.62;100.00
40920;BME280;26652;50.280;19.026;2023-12-20T05:31:34;149239.56;;;5.71;100.00
40920;BME280;26652;50.280;19.026;2023-12-20T05:33:34;149216.22;;;5.62;100.00
40920;BME280;26652;50.280;19.026;2023-12-20T05:35:35;149222.34;;;5.64;100.00
40920;BME280;26652;50.280;19.026;2023-12-20T05:37:36;149224.81;;;5.65;100.00
40920;BME280;26652;50.280;19.026;2023-12-20T05:39:36;149212.53;;;5.60;100.00
40920;BME280;26652;50.280;19.026;2023-12-20T05:41:37;149181.81;;;5.47;100.00
40920;BME280;26652;50.280;19.026;2023-12-20T05:43:37;149192.88;;;5.52;100.00
40920;BME280;26652;50.280;19.026;2023-12-20T05:45:38;149126.56;;;5.24;100.00
40920;BME280;26652;50.280;19.026;2023-12-20T05:47:39;149116.75;;;5.20;100.00
40920;BME280;26652;50.280;19.026;2023-12-20T05:49:40;149133.94;;;5.28;100.00
40920;BME280;26652;50.280;19.026;2023-12-20T05:51:40;149154.81;;;5.36;100.00
40920;BME280;26652;50.280;19.026;2023-12-20T05:53:41;149154.81;;;5.36;100.00
40920;BME280;26652;50.280;19.026;2023-12-20T05:55:42;149125.34;;;5.24;100.00
40920;BME280;26652;50.280;19.026;2023-12-20T05:57:42;149115.56;;;5.20;100.00
40920;BME280;26652;50.280;19.026;2023-12-20T05:59:43;149079.97;;;5.05;100.00
40920;BME280;26652;50.280;19.026;2023-12-20T06:01:44;149163.41;;;5.40;100.00
40920;BME280;26652;50.280;19.026;2023-12-20T06:03:44;149152.34;;;5.35;100.00
40920;BME280;26652;50.280;19.026;2023-12-20T06:05:46;149122.88;;;5.23;100.00
40920;BME280;26652;50.280;19.026;2023-12-20T06:07:47;149108.19;;;5.17;100.00
40920;BME280;26652;50.280;19.026;2023-12-20T06:09:48;149121.66;;;5.22;100.00
40920;BME280;26652;50.280;19.026;2023-12-20T06:11:49;149179.38;;;5.46;100.00
40920;BME280;26652;50.280;19.026;2023-12-20T06:13:51;149124.09;;;5.23;100.00
40920;BME280;26652;50.280;19.026;2023-12-20T06:15:56;149167.09;;;5.41;100.00
40920;BME280;26652;50.280;19.026;2023-12-20T06:17:57;149130.25;;;5.26;100.00
40920;BME280;26652;50.280;19.026;2023-12-20T06:19:58;149149.91;;;5.34;100.00
40920;BME280;26652;50.280;19.026;2023-12-20T06:21:58;149130.25;;;5.26;100.00
40920;BME280;26652;50.280;19.026;2023-12-20T06:23:59;149141.31;;;5.31;100.00
40920;BME280;26652;50.280;19.026;2023-12-20T06:26:00;149098.38;;;5.13;100.00
40920;BME280;26652;50.280;19.026;2023-12-20T06:28:02;149082.41;;;5.06;100.00
40920;BME280;26652;50.280;19.026;2023-12-20T06:30:03;149086.09;;;5.08;100.00
40920;BME280;26652;50.280;19.026;2023-12-20T06:32:04;149130.25;;;5.26;100.00
40920;BME280;26652;50.280;19.026;2023-12-20T06:34:05;149130.25;;;5.26;100.00
40920;BME280;26652;50.280;19.026;2023-12-20T06:36:05;149092.22;;;5.10;100.00
40920;BME280;26652;50.280;19.026;2023-12-20T06:38:06;149071.38;;;5.02;100.00
40920;BME280;26652;50.280;19.026;2023-12-20T06:40:07;149093.47;;;5.11;100.00
40920;BME280;26652;50.280;19.026;2023-12-20T06:42:08;149087.31;;;5.08;100.00
40920;BME280;26652;50.280;19.026;2023-12-20T06:44:09;149084.88;;;5.07;100.00
40920;BME280;26652;50.280;19.026;2023-12-20T06:46:09;149088.53;;;5.09;100.00
40920;BME280;26652;50.280;19.026;2023-12-20T06:48:10;149087.31;;;5.08;100.00
40920;BME280;26652;50.280;19.026;2023-12-20T06:50:13;149111.88;;;5.18;100.00
40920;BME280;26652;50.280;19.026;2023-12-20T06:52:14;149089.78;;;5.09;100.00
40920;BME280;26652;50.280;19.026;2023-12-20T06:54:15;149062.75;;;4.98;100.00
40920;BME280;26652;50.280;19.026;2023-12-20T06:56:16;149066.44;;;5.00;100.00
40920;BME280;26652;50.280;19.026;2023-12-20T06:58:17;149079.97;;;5.05;100.00
40920;BME280;26652;50.280;19.026;2023-12-20T07:00:18;149081.19;;;5.06;100.00
40920;BME280;26652;50.280;19.026;2023-12-20T07:02:20;149109.41;;;5.17;100.00
40920;BME280;26652;50.280;19.026;2023-12-20T07:04:22;149108.19;;;5.17;100.00
40920;BME280;26652;50.280;19.026;2023-12-20T07:06:23;149081.19;;;5.06;100.00
40920;BME280;26652;50.280;19.026;2023-12-20T07:08:26;149099.59;;;5.13;100.00
40920;BME280;26652;50.280;19.026;2023-12-20T07:10:26;149088.53;;;5.09;100.00
40920;BME280;26652;50.280;19.026;2023-12-20T07:12:27;149109.41;;;5.17;100.00
40920;BME280;26652;50.280;19.026;2023-12-20T07:14:29;149109.41;;;5.17;100.00
40920;BME280;26652;50.280;19.026;2023-12-20T07:16:29;149144.97;;;5.32;100.00
40920;BME280;26652;50.280;19.026;2023-12-20T07:18:30;149102.06;;;5.14;100.00
40920;BME280;26652;50.280;19.026;2023-12-20T07:20:30;149142.53;;;5.31;100.00
40920;BME280;26652;50.280;19.026;2023-12-20T07:22:31;149174.47;;;5.44;100.00
40920;BME280;26652;50.280;19.026;2023-12-20T07:24:32;149180.59;;;5.47;100.00
40920;BME280;26652;50.280;19.026;2023-12-20T07:26:34;149167.09;;;5.41;100.00
40920;BME280;26652;50.280;19.026;2023-12-20T07:28:35;149110.66;;;5.18;100.00
40920;BME280;26652;50.280;19.026;2023-12-20T07:30:36;149137.63;;;5.29;100.00
40920;BME280;26652;50.280;19.026;2023-12-20T07:32:36;149084.88;;;5.07;100.00
40920;BME280;26652;50.280;19.026;2023-12-20T07:34:37;149106.97;;;5.16;100.00
40920;BME280;26652;50.280;19.026;2023-12-20T07:36:38;149160.94;;;5.39;100.00
40920;BME280;26652;50.280;19.026;2023-12-20T07:38:38;149066.44;;;5.00;100.00
40920;BME280;26652;50.280;19.026;2023-12-20T07:40:39;149062.75;;;4.98;100.00
40920;BME280;26652;50.280;19.026;2023-12-20T07:42:40;149103.28;;;5.15;100.00
40920;BME280;26652;50.280;19.026;2023-12-20T07:44:40;149062.75;;;4.98;100.00
40920;BME280;26652;50.280;19.026;2023-12-20T07:46:42;149051.72;;;4.93;100.00
40920;BME280;26652;50.280;19.026;2023-12-20T07:48:42;149045.59;;;4.91;100.00
40920;BME280;26652;50.280;19.026;2023-12-20T07:50:43;149051.72;;;4.93;100.00
40920;BME280;26652;50.280;19.026;2023-12-20T07:52:43;149068.91;;;5.01;100.00
40920;BME280;26652;50.280;19.026;2023-12-20T07:54:45;149056.63;;;4.96;100.00
40920;BME280;26652;50.280;19.026;2023-12-20T07:56:46;149081.19;;;5.06;100.00
40920;BME280;26652;50.280;19.026;2023-12-20T07:58:47;149057.84;;;4.96;100.00
40920;BME280;26652;50.280;19.026;2023-12-20T08:00:48;149081.19;;;5.06;100.00
40920;BME280;26652;50.280;19.026;2023-12-20T08:02:49;149102.06;;;5.14;100.00
40920;BME280;26652;50.280;19.026;2023-12-20T08:04:50;149103.28;;;5.15;100.00
40920;BME280;26652;50.280;19.026;2023-12-20T08:06:50;149081.19;;;5.06;100.00
40920;BME280;26652;50.280;19.026;2023-12-20T08:08:51;149088.53;;;5.09;100.00
40920;BME280;26652;50.280;19.026;2023-12-20T08:10:52;149081.19;;;5.06;100.00
40920;BME280;26652;50.280;19.026;2023-12-20T08:12:52;149021.03;;;4.81;100.00
40920;BME280;26652;50.280;19.026;2023-12-20T08:14:54;149012.44;;;4.77;100.00
40920;BME280;26652;50.280;19.026;2023-12-20T08:16:54;149007.53;;;4.75;100.00
40920;BME280;26652;50.280;19.026;2023-12-20T08:18:55;149023.47;;;4.82;100.00
40920;BME280;26652;50.280;19.026;2023-12-20T08:20:55;148978.06;;;4.63;100.00
40920;BME280;26652;50.280;19.026;2023-12-20T08:22:56;148987.88;;;4.67;100.00
40920;BME280;26652;50.280;19.026;2023-12-20T08:24:57;148982.97;;;4.65;100.00
40920;BME280;26652;50.280;19.026;2023-12-20T08:26:58;148979.31;;;4.64;100.00
40920;BME280;26652;50.280;19.026;2023-12-20T08:28:58;148981.75;;;4.65;100.00
40920;BME280;26652;50.280;19.026;2023-12-20T08:30:59;148974.38;;;4.62;100.00
40920;BME280;26652;50.280;19.026;2023-12-20T08:33:00;149019.81;;;4.80;100.00
40920;BME280;26652;50.280;19.026;2023-12-20T08:35:01;149016.13;;;4.79;100.00
40920;BME280;26652;50.280;19.026;2023-12-20T08:37:01;148994.03;;;4.70;100.00
40920;BME280;26652;50.280;19.026;2023-12-20T08:39:02;149017.34;;;4.79;100.00
40920;BME280;26652;50.280;19.026;2023-12-20T08:41:06;149003.84;;;4.74;100.00
40920;BME280;26652;50.280;19.026;2023-12-20T08:43:07;148982.97;;;4.65;100.00
40920;BME280;26652;50.280;19.026;2023-12-20T08:45:08;149019.81;;;4.80;100.00
40920;BME280;26652;50.280;19.026;2023-12-20T08:47:09;149019.81;;;4.80;100.00
40920;BME280;26652;50.280;19.026;2023-12-20T08:49:13;149009.97;;;4.76;100.00
40920;BME280;26652;50.280;19.026;2023-12-20T08:51:14;149029.63;;;4.84;100.00
40920;BME280;26652;50.280;19.026;2023-12-20T08:53:15;149007.53;;;4.75;100.00
40920;BME280;26652;50.280;19.026;2023-12-20T08:55:17;149040.66;;;4.89;100.00
40920;BME280;26652;50.280;19.026;2023-12-20T08:57:20;149057.84;;;4.96;100.00
40920;BME280;26652;50.280;19.026;2023-12-20T08:59:24;149073.81;;;5.03;100.00
40920;BME280;26652;50.280;19.026;2023-12-20T09:01:25;149013.66;;;4.78;100.00
40920;BME280;26652;50.280;19.026;2023-12-20T09:03:26;149037.00;;;4.87;100.00
40920;BME280;26652;50.280;19.026;2023-12-20T09:05:26;149044.34;;;4.90;100.00
40920;BME280;26652;50.280;19.026;2023-12-20T09:07:27;149025.94;;;4.83;100.00
40920;BME280;26652;50.280;19.026;2023-12-20T09:09:29;149077.50;;;5.04;100.00
40920;BME280;26652;50.280;19.026;2023-12-20T09:11:32;149082.41;;;5.06;100.00
40920;BME280;26652;50.280;19.026;2023-12-20T09:13:33;149111.88;;;5.18;100.00
40920;BME280;26652;50.280;19.026;2023-12-20T09:15:33;149097.16;;;5.12;100.00
40920;BME280;26652;50.280;19.026;2023-12-20T09:17:34;149067.69;;;5.00;100.00
40920;BME280;26652;50.280;19.026;2023-12-20T09:19:35;149081.19;;;5.06;100.00
40920;BME280;26652;50.280;19.026;2023-12-20T09:21:35;149067.69;;;5.00;100.00
40920;BME280;26652;50.280;19.026;2023-12-20T09:23:36;149075.03;;;5.03;100.00
40920;BME280;26652;50.280;19.026;2023-12-20T09:25:37;149075.03;;;5.03;100.00
40920;BME280;26652;50.280;19.026;2023-12-20T09:27:37;149070.13;;;5.01;100.00
40920;BME280;26652;50.280;19.026;2023-12-20T09:29:38;149072.59;;;5.02;100.00
40920;BME280;26652;50.280;19.026;2023-12-20T09:31:39;149075.03;;;5.03;100.00
40920;BME280;26652;50.280;19.026;2023-12-20T09:33:39;149082.41;;;5.06;100.00
40920;BME280;26652;50.280;19.026;2023-12-20T09:35:40;149068.91;;;5.01;100.00
40920;BME280;26652;50.280;19.026;2023-12-20T09:37:40;149005.06;;;4.74;100.00
40920;BME280;26652;50.280;19.026;2023-12-20T09:39:45;149046.81;;;4.91;100.00
40920;BME280;26652;50.280;19.026;2023-12-20T09:41:51;149019.81;;;4.80;100.00
40920;BME280;26652;50.280;19.026;2023-12-20T09:43:58;149046.81;;;4.91;100.00
40920;BME280;26652;50.280;19.026;2023-12-20T09:46:00;149093.47;;;5.11;100.00
40920;BME280;26652;50.280;19.026;2023-12-20T09:48:04;149051.72;;;4.93;100.00
40920;BME280;26652;50.280;19.026;2023-12-20T09:50:05;149099.59;;;5.13;100.00
40920;BME280;26652;50.280;19.026;2023-12-20T09:52:07;149116.75;;;5.20;100.00
40920;BME280;26652;50.280;19.026;2023-12-20T09:54:09;149132.72;;;5.27;100.00
40920;BME280;26652;50.280;19.026;2023-12-20T09:56:10;149152.34;;;5.35;100.00
40920;BME280;26652;50.280;19.026;2023-12-20T09:58:11;149125.34;;;5.24;100.00
40920;BME280;26652;50.280;19.026;2023-12-20T10:00:14;149187.97;;;5.50;100.00
40920;BME280;26652;50.280;19.026;2023-12-20T10:02:18;149203.94;;;5.56;100.00
40920;BME280;26652;50.280;19.026;2023-12-20T10:04:20;149184.28;;;5.48;100.00
40920;BME280;26652;50.280;19.026;2023-12-20T10:06:22;149151.13;;;5.35;100.00
40920;BME280;26652;50.280;19.026;2023-12-20T10:08:23;149125.34;;;5.24;100.00
40920;BME280;26652;50.280;19.026;2023-12-20T10:10:24;149162.19;;;5.39;100.00
40920;BME280;26652;50.280;19.026;2023-12-20T10:12:25;149179.38;;;5.46;100.00
40920;BME280;26652;50.280;19.026;2023-12-20T10:14:25;149178.13;;;5.46;100.00
40920;BME280;26652;50.280;19.026;2023-12-20T10:16:27;149148.66;;;5.34;100.00
40920;BME280;26652;50.280;19.026;2023-12-20T10:18:29;149157.25;;;5.37;100.00
40920;BME280;26652;50.280;19.026;2023-12-20T10:20:31;149132.72;;;5.27;100.00
40920;BME280;26652;50.280;19.026;2023-12-20T10:22:31;149163.41;;;5.40;100.00
40920;BME280;26652;50.280;19.026;2023-12-20T10:24:32;149141.31;;;5.31;100.00
40920;BME280;26652;50.280;19.026;2023-12-20T10:26:33;149122.88;;;5.23;100.00
40920;BME280;26652;50.280;19.026;2023-12-20T10:28:34;149137.63;;;5.29;100.00